Marco Polo — C6JZ7 — position and weather

sailwx.info

Track history (hours):
 
Tides and Currents Weather Stations Pressure Air Temp Water Temp Dewpoint Dewpoint Depression Visibility Wind Speed Wind Dir Waves Ship Positions

Marco Polo

Operator: Orient Lines

Last reported at 2016-Jun-24 20:04 UTC. Time now 2016-Jun-26 17:28 UTC.
Position N 62°51' W 009°07'.

Type: Ship. MMSI: 308691456.

Date/timePositionNaut miles runAvg speedWind from/ knotsBaromVisibWave heightAir tempDewpointWater temp
2016-Jun-24 20:04N 62°51' W 009°07'714.4
2016-Jun-24 19:34N 62°46' W 008°56'1414.3
2016-Jun-24 18:34N 62°34' W 008°37'1414.1
2016-Jun-24 17:33N 62°23' W 008°18'1313.4
2016-Jun-24 16:33N 62°13' W 008°00'1313.3
2016-Jun-24 15:33N 62°03' W 007°41'1414.1
2016-Jun-24 14:34N 61°58' W 007°12'1413.7
2016-Jun-24 13:34N 61°56' W 006°44'5 4.6
2016-Jun-24 12:33N 62°00' W 006°46'0 0.0
2016-Jun-24 11:33N 62°00' W 006°46'0 0.0
2016-Jun-24 10:33N 62°00' W 006°46'0 0.0
2016-Jun-24 09:33N 62°00' W 006°46'0 0.0
2016-Jun-24 08:33N 62°00' W 006°46'0 0.0
2016-Jun-24 07:33N 62°00' W 006°46'7 2.5
2016-Jun-24 04:33N 61°54' W 006°38'7 7.3
2016-Jun-24 03:33N 61°48' W 006°31'1312.5
2016-Jun-24 02:33N 61°36' W 006°19'1313.1
2016-Jun-24 01:33N 61°25' W 006°07'1313.1
2016-Jun-24 00:33N 61°13' W 005°54'11413.8
2016-Jun-23 16:16N 59°31' W 004°10'1013.6
2016-Jun-23 15:33N 59°22' W 004°02'1414.1
2016-Jun-23 14:33N 59°10' W 003°49'1414.2
2016-Jun-23 13:33N 58°57' W 003°37'1414.2
2016-Jun-23 12:33N 58°45' W 003°21'1111.1
2016-Jun-23 11:33N 58°42' W 003°01'10 9.6
2016-Jun-23 10:33N 58°34' W 002°51'13813.8
2016-Jun-23 00:33N 56°23' W 001°28'1514.3
2016-Jun-22 23:31N 56°08' W 001°26'4615.5
2016-Jun-22 20:33N 55°22' W 001°21'1515.3
2016-Jun-22 19:33N 55°07' W 001°20'9 9.0
2016-Jun-22 18:33N 54°59' W 001°28'1 0.6
2016-Jun-22 17:31N 54°60' W 001°27'0 0.0
2016-Jun-22 16:25N 54°60' W 001°27'0 0.0
2016-Jun-22 15:31N 54°60' W 001°27'0 0.0
2016-Jun-22 14:19N 54°60' W 001°27'0 0.0
2016-Jun-22 13:31N 54°60' W 001°27'0 0.0
2016-Jun-22 12:31N 54°60' W 001°27'0 0.0
2016-Jun-22 11:31N 54°60' W 001°27'0 0.0
2016-Jun-22 10:16N 54°60' W 001°27'0 0.0
2016-Jun-22 09:31N 54°60' W 001°27'0 0.0
2016-Jun-22 08:31N 54°60' W 001°27'0 0.0
2016-Jun-22 07:31N 54°60' W 001°27'1 0.8
2016-Jun-22 06:34N 55°00' W 001°26'9 8.8
2016-Jun-22 05:34N 55°08' W 001°20'9015.0
2016-Jun-21 23:33N 56°38' W 001°29'121 5.1
2016-Jun-21 00:04N 58°31' W 002°53'814.9
2016-Jun-20 23:32N 58°38' W 002°48'1414.6
2016-Jun-20 22:33N 58°52' W 002°39'1212.3
2016-Jun-20 21:34N 59°01' W 002°54'2 1.9
2016-Jun-20 20:31N 58°60' W 002°58'0 0.0
2016-Jun-20 19:28N 58°60' W 002°58'0 0.0
2016-Jun-20 18:28N 58°60' W 002°58'0 0.0
2016-Jun-20 17:31N 58°60' W 002°58'0 0.0
2016-Jun-20 16:25N 58°60' W 002°58'0 0.0
2016-Jun-20 15:28N 58°60' W 002°58'0 0.0
2016-Jun-20 14:31N 58°60' W 002°58'0 0.1
2016-Jun-20 13:31N 58°60' W 002°58'0 0.0
2016-Jun-20 12:31N 58°60' W 002°58'0 0.0
2016-Jun-20 11:28N 58°60' W 002°58'0 0.0
2016-Jun-20 10:31N 58°60' W 002°58'0 0.0
2016-Jun-20 09:33N 58°60' W 002°58'5 5.0
2016-Jun-20 08:33N 59°00' W 002°48'  
2016-Jun-16 23:29N 55°01' E 000°02'10 9.8
2016-Jun-16 22:29N 54°51' E 000°04'1212.7
2016-Jun-16 21:33N 54°40' E 000°07'1313.1
2016-Jun-16 20:33N 54°27' E 000°11'1313.4
2016-Jun-16 19:33N 54°14' E 000°14'1414.2
2016-Jun-16 18:33N 53°60' E 000°17'1515.3
2016-Jun-16 17:33N 53°44' E 000°22'1313.1
2016-Jun-16 16:34N 53°33' E 000°13'1313.2
2016-Jun-16 15:33N 53°37' W 000°08'9 8.6
2016-Jun-16 14:34N 53°44' W 000°16'0 0.2
2016-Jun-16 13:33N 53°45' W 000°16'0 0.0
2016-Jun-16 12:33N 53°45' W 000°16'0 0.0
2016-Jun-16 11:33N 53°45' W 000°16'0 0.0
2016-Jun-16 10:33N 53°45' W 000°16'0 0.0
2016-Jun-16 09:30N 53°45' W 000°16'0 0.0
2016-Jun-16 08:33N 53°45' W 000°16'0 0.0
2016-Jun-16 07:33N 53°45' W 000°16'0 0.0
2016-Jun-16 06:33N 53°45' W 000°16'0 0.0
2016-Jun-16 05:33N 53°45' W 000°16'0 0.0
2016-Jun-16 04:33N 53°45' W 000°16'0 0.0
2016-Jun-16 03:33N 53°45' W 000°16'0 0.1
2016-Jun-16 02:33N 53°44' W 000°16'2 1.9
2016-Jun-16 01:34N 53°43' W 000°15'8 8.0
2016-Jun-16 00:34N 53°37' W 000°06'1111.2
2016-Jun-15 23:33N 53°33' E 000°12'8 8.1
2016-Jun-15 22:33N 53°39' E 000°22'1312.9
2016-Jun-15 21:34N 53°51' E 000°17'1413.9
2016-Jun-15 20:32N 54°05' E 000°10'1313.5
2016-Jun-15 19:33N 54°18' E 000°03'1313.5
2016-Jun-15 18:33N 54°31' W 000°03'1313.4
2016-Jun-15 17:33N 54°44' W 000°09'17211.3
2016-Jun-15 02:20N 57°29' W 001°36'8 9.9
2016-Jun-15 01:33N 57°36' W 001°40'  
Track history (hours):
 
Tides and Currents Weather Stations Pressure Air Temp Water Temp Dewpoint Dewpoint Depression Visibility Wind Speed Wind Dir Waves Ship Positions

Marco Polo

Operator: Orient Lines

Last reported at 2016-Jun-24 20:04 UTC. Time now 2016-Jun-26 17:28 UTC.
Position N 62°51' W 009°07'.

Type: Ship. MMSI: 308691456.

Date/timePositionNaut miles runAvg speedWind from/ knotsBaromVisibWave heightAir tempDewpointWater temp
2016-Jun-24 20:04N 62°51' W 009°07'714.4
2016-Jun-24 19:34N 62°46' W 008°56'1414.3
2016-Jun-24 18:34N 62°34' W 008°37'1414.1
2016-Jun-24 17:33N 62°23' W 008°18'1313.4
2016-Jun-24 16:33N 62°13' W 008°00'1313.3
2016-Jun-24 15:33N 62°03' W 007°41'1414.1
2016-Jun-24 14:34N 61°58' W 007°12'1413.7
2016-Jun-24 13:34N 61°56' W 006°44'5 4.6
2016-Jun-24 12:33N 62°00' W 006°46'0 0.0
2016-Jun-24 11:33N 62°00' W 006°46'0 0.0
2016-Jun-24 10:33N 62°00' W 006°46'0 0.0
2016-Jun-24 09:33N 62°00' W 006°46'0 0.0
2016-Jun-24 08:33N 62°00' W 006°46'0 0.0
2016-Jun-24 07:33N 62°00' W 006°46'7 2.5
2016-Jun-24 04:33N 61°54' W 006°38'7 7.3
2016-Jun-24 03:33N 61°48' W 006°31'1312.5
2016-Jun-24 02:33N 61°36' W 006°19'1313.1
2016-Jun-24 01:33N 61°25' W 006°07'1313.1
2016-Jun-24 00:33N 61°13' W 005°54'11413.8
2016-Jun-23 16:16N 59°31' W 004°10'1013.6
2016-Jun-23 15:33N 59°22' W 004°02'1414.1
2016-Jun-23 14:33N 59°10' W 003°49'1414.2
2016-Jun-23 13:33N 58°57' W 003°37'1414.2
2016-Jun-23 12:33N 58°45' W 003°21'1111.1
2016-Jun-23 11:33N 58°42' W 003°01'10 9.6
2016-Jun-23 10:33N 58°34' W 002°51'13813.8
2016-Jun-23 00:33N 56°23' W 001°28'1514.3
2016-Jun-22 23:31N 56°08' W 001°26'4615.5
2016-Jun-22 20:33N 55°22' W 001°21'1515.3
2016-Jun-22 19:33N 55°07' W 001°20'9 9.0
2016-Jun-22 18:33N 54°59' W 001°28'1 0.6
2016-Jun-22 17:31N 54°60' W 001°27'0 0.0
2016-Jun-22 16:25N 54°60' W 001°27'0 0.0
2016-Jun-22 15:31N 54°60' W 001°27'0 0.0
2016-Jun-22 14:19N 54°60' W 001°27'0 0.0
2016-Jun-22 13:31N 54°60' W 001°27'0 0.0
2016-Jun-22 12:31N 54°60' W 001°27'0 0.0
2016-Jun-22 11:31N 54°60' W 001°27'0 0.0
2016-Jun-22 10:16N 54°60' W 001°27'0 0.0
2016-Jun-22 09:31N 54°60' W 001°27'0 0.0
2016-Jun-22 08:31N 54°60' W 001°27'0 0.0
2016-Jun-22 07:31N 54°60' W 001°27'1 0.8
2016-Jun-22 06:34N 55°00' W 001°26'9 8.8
2016-Jun-22 05:34N 55°08' W 001°20'9015.0
2016-Jun-21 23:33N 56°38' W 001°29'121 5.1
2016-Jun-21 00:04N 58°31' W 002°53'814.9
2016-Jun-20 23:32N 58°38' W 002°48'1414.6
2016-Jun-20 22:33N 58°52' W 002°39'1212.3
2016-Jun-20 21:34N 59°01' W 002°54'2 1.9
2016-Jun-20 20:31N 58°60' W 002°58'0 0.0
2016-Jun-20 19:28N 58°60' W 002°58'0 0.0
2016-Jun-20 18:28N 58°60' W 002°58'0 0.0
2016-Jun-20 17:31N 58°60' W 002°58'0 0.0
2016-Jun-20 16:25N 58°60' W 002°58'0 0.0
2016-Jun-20 15:28N 58°60' W 002°58'0 0.0
2016-Jun-20 14:31N 58°60' W 002°58'0 0.1
2016-Jun-20 13:31N 58°60' W 002°58'0 0.0
2016-Jun-20 12:31N 58°60' W 002°58'0 0.0
2016-Jun-20 11:28N 58°60' W 002°58'0 0.0
2016-Jun-20 10:31N 58°60' W 002°58'0 0.0
2016-Jun-20 09:33N 58°60' W 002°58'5 5.0
2016-Jun-20 08:33N 59°00' W 002°48'  
2016-Jun-16 23:29N 55°01' E 000°02'10 9.8
2016-Jun-16 22:29N 54°51' E 000°04'1212.7
2016-Jun-16 21:33N 54°40' E 000°07'1313.1
2016-Jun-16 20:33N 54°27' E 000°11'1313.4
2016-Jun-16 19:33N 54°14' E 000°14'1414.2
2016-Jun-16 18:33N 53°60' E 000°17'1515.3
2016-Jun-16 17:33N 53°44' E 000°22'1313.1
2016-Jun-16 16:34N 53°33' E 000°13'1313.2
2016-Jun-16 15:33N 53°37' W 000°08'9 8.6
2016-Jun-16 14:34N 53°44' W 000°16'0 0.2
2016-Jun-16 13:33N 53°45' W 000°16'0 0.0
2016-Jun-16 12:33N 53°45' W 000°16'0 0.0
2016-Jun-16 11:33N 53°45' W 000°16'0 0.0
2016-Jun-16 10:33N 53°45' W 000°16'0 0.0
2016-Jun-16 09:30N 53°45' W 000°16'0 0.0
2016-Jun-16 08:33N 53°45' W 000°16'0 0.0
2016-Jun-16 07:33N 53°45' W 000°16'0 0.0
2016-Jun-16 06:33N 53°45' W 000°16'0 0.0
2016-Jun-16 05:33N 53°45' W 000°16'0 0.0
2016-Jun-16 04:33N 53°45' W 000°16'0 0.0
2016-Jun-16 03:33N 53°45' W 000°16'0 0.1
2016-Jun-16 02:33N 53°44' W 000°16'2 1.9
2016-Jun-16 01:34N 53°43' W 000°15'8 8.0
2016-Jun-16 00:34N 53°37' W 000°06'1111.2
2016-Jun-15 23:33N 53°33' E 000°12'8 8.1
2016-Jun-15 22:33N 53°39' E 000°22'1312.9
2016-Jun-15 21:34N 53°51' E 000°17'1413.9
2016-Jun-15 20:32N 54°05' E 000°10'1313.5
2016-Jun-15 19:33N 54°18' E 000°03'1313.5
2016-Jun-15 18:33N 54°31' W 000°03'1313.4
2016-Jun-15 17:33N 54°44' W 000°09'17211.3
2016-Jun-15 02:20N 57°29' W 001°36'8 9.9
2016-Jun-15 01:33N 57°36' W 001°40'  

Dump ship's entire track history